sensor_id;sensor_type;location;lat;lon;timestamp;temperature;humidity
38265;DHT22;24062;47.480;8.768;2023-10-19T00:02:05;20.30;54.60
38265;DHT22;24062;47.480;8.768;2023-10-19T00:04:33;20.30;54.60
38265;DHT22;24062;47.480;8.768;2023-10-19T00:07:01;20.30;54.60
38265;DHT22;24062;47.480;8.768;2023-10-19T00:09:30;20.30;54.60
38265;DHT22;24062;47.480;8.768;2023-10-19T00:12:03;20.30;54.60
38265;DHT22;24062;47.480;8.768;2023-10-19T00:14:31;20.30;54.60
38265;DHT22;24062;47.480;8.768;2023-10-19T00:16:59;20.20;54.60
38265;DHT22;24062;47.480;8.768;2023-10-19T00:19:33;20.20;54.60
38265;DHT22;24062;47.480;8.768;2023-10-19T00:22:05;20.20;54.70
38265;DHT22;24062;47.480;8.768;2023-10-19T00:24:36;20.20;54.70
38265;DHT22;24062;47.480;8.768;2023-10-19T00:27:02;20.20;54.70
38265;DHT22;24062;47.480;8.768;2023-10-19T00:29:41;20.20;54.70
38265;DHT22;24062;47.480;8.768;2023-10-19T00:32:16;20.10;54.60
38265;DHT22;24062;47.480;8.768;2023-10-19T00:34:44;20.10;54.70
38265;DHT22;24062;47.480;8.768;2023-10-19T00:37:17;20.10;54.70
38265;DHT22;24062;47.480;8.768;2023-10-19T00:39:52;20.10;54.70
38265;DHT22;24062;47.480;8.768;2023-10-19T00:42:20;20.10;54.80
38265;DHT22;24062;47.480;8.768;2023-10-19T00:44:51;20.10;54.80
38265;DHT22;24062;47.480;8.768;2023-10-19T00:47:28;20.10;54.80
38265;DHT22;24062;47.480;8.768;2023-10-19T00:50:04;20.10;54.80
38265;DHT22;24062;47.480;8.768;2023-10-19T00:52:38;20.10;54.90
38265;DHT22;24062;47.480;8.768;2023-10-19T00:55:09;20.10;54.90
38265;DHT22;24062;47.480;8.768;2023-10-19T00:57:40;20.00;54.80
38265;DHT22;24062;47.480;8.768;2023-10-19T01:00:12;20.00;54.90
38265;DHT22;24062;47.480;8.768;2023-10-19T01:02:48;20.00;54.80
38265;DHT22;24062;47.480;8.768;2023-10-19T01:05:25;20.00;54.90
38265;DHT22;24062;47.480;8.768;2023-10-19T01:07:58;20.00;54.90
38265;DHT22;24062;47.480;8.768;2023-10-19T01:10:28;20.00;54.90
38265;DHT22;24062;47.480;8.768;2023-10-19T01:12:57;20.00;54.90
38265;DHT22;24062;47.480;8.768;2023-10-19T01:15:25;20.00;54.90
38265;DHT22;24062;47.480;8.768;2023-10-19T01:17:58;20.00;54.90
38265;DHT22;24062;47.480;8.768;2023-10-19T01:20:28;20.00;55.00
38265;DHT22;24062;47.480;8.768;2023-10-19T01:23:15;20.00;54.90
38265;DHT22;24062;47.480;8.768;2023-10-19T01:25:53;20.00;55.00
38265;DHT22;24062;47.480;8.768;2023-10-19T01:28:30;20.00;55.00
38265;DHT22;24062;47.480;8.768;2023-10-19T01:31:08;19.90;54.90
38265;DHT22;24062;47.480;8.768;2023-10-19T01:33:40;19.90;54.90
38265;DHT22;24062;47.480;8.768;2023-10-19T01:36:07;19.90;54.90
38265;DHT22;24062;47.480;8.768;2023-10-19T01:38:39;19.90;55.00
38265;DHT22;24062;47.480;8.768;2023-10-19T01:41:07;19.90;55.00
38265;DHT22;24062;47.480;8.768;2023-10-19T01:43:40;19.80;55.50
38265;DHT22;24062;47.480;8.768;2023-10-19T01:46:06;19.90;55.00
38265;DHT22;24062;47.480;8.768;2023-10-19T01:48:37;19.90;55.00
38265;DHT22;24062;47.480;8.768;2023-10-19T01:51:07;19.90;55.00
38265;DHT22;24062;47.480;8.768;2023-10-19T01:53:36;19.90;55.00
38265;DHT22;24062;47.480;8.768;2023-10-19T01:56:07;19.80;55.00
38265;DHT22;24062;47.480;8.768;2023-10-19T01:58:35;19.80;55.00
38265;DHT22;24062;47.480;8.768;2023-10-19T02:01:03;19.90;55.10
38265;DHT22;24062;47.480;8.768;2023-10-19T02:03:34;19.90;55.10
38265;DHT22;24062;47.480;8.768;2023-10-19T02:06:02;19.80;55.00
38265;DHT22;24062;47.480;8.768;2023-10-19T02:08:36;19.80;55.00
38265;DHT22;24062;47.480;8.768;2023-10-19T02:11:07;19.80;55.10
38265;DHT22;24062;47.480;8.768;2023-10-19T02:13:42;19.80;55.10
38265;DHT22;24062;47.480;8.768;2023-10-19T02:16:11;19.80;55.00
38265;DHT22;24062;47.480;8.768;2023-10-19T02:18:38;19.80;55.10
38265;DHT22;24062;47.480;8.768;2023-10-19T02:21:04;19.70;55.00
38265;DHT22;24062;47.480;8.768;2023-10-19T02:23:32;19.80;55.10
38265;DHT22;24062;47.480;8.768;2023-10-19T02:26:00;19.80;55.10
38265;DHT22;24062;47.480;8.768;2023-10-19T02:28:30;19.80;55.10
38265;DHT22;24062;47.480;8.768;2023-10-19T02:30:58;19.80;55.10
38265;DHT22;24062;47.480;8.768;2023-10-19T02:33:37;19.70;55.00
38265;DHT22;24062;47.480;8.768;2023-10-19T02:36:04;19.70;55.00
38265;DHT22;24062;47.480;8.768;2023-10-19T02:38:30;19.70;55.00
38265;DHT22;24062;47.480;8.768;2023-10-19T02:40:58;19.70;55.00
38265;DHT22;24062;47.480;8.768;2023-10-19T02:43:24;19.70;55.00
38265;DHT22;24062;47.480;8.768;2023-10-19T02:45:53;19.70;55.10
38265;DHT22;24062;47.480;8.768;2023-10-19T02:48:19;19.70;55.10
38265;DHT22;24062;47.480;8.768;2023-10-19T02:50:46;19.70;55.10
38265;DHT22;24062;47.480;8.768;2023-10-19T02:53:12;19.70;55.10
38265;DHT22;24062;47.480;8.768;2023-10-19T02:55:39;19.70;55.10
38265;DHT22;24062;47.480;8.768;2023-10-19T02:58:06;19.70;55.10
38265;DHT22;24062;47.480;8.768;2023-10-19T03:00:36;19.70;55.00
38265;DHT22;24062;47.480;8.768;2023-10-19T03:03:05;19.70;55.60
38265;DHT22;24062;47.480;8.768;2023-10-19T03:05:32;19.80;55.10
38265;DHT22;24062;47.480;8.768;2023-10-19T03:08:00;19.80;55.00
38265;DHT22;24062;47.480;8.768;2023-10-19T03:10:31;19.80;55.00
38265;DHT22;24062;47.480;8.768;2023-10-19T03:13:07;19.90;55.10
38265;DHT22;24062;47.480;8.768;2023-10-19T03:15:35;19.90;55.00
38265;DHT22;24062;47.480;8.768;2023-10-19T03:18:01;20.00;55.00
38265;DHT22;24062;47.480;8.768;2023-10-19T03:20:31;20.00;55.00
38265;DHT22;24062;47.480;8.768;2023-10-19T03:22:59;20.00;54.90
38265;DHT22;24062;47.480;8.768;2023-10-19T03:25:27;20.00;54.90
38265;DHT22;24062;47.480;8.768;2023-10-19T03:28:11;20.10;54.90
38265;DHT22;24062;47.480;8.768;2023-10-19T03:30:41;20.10;54.80
38265;DHT22;24062;47.480;8.768;2023-10-19T03:33:07;20.10;54.80
38265;DHT22;24062;47.480;8.768;2023-10-19T03:35:37;20.10;54.80
38265;DHT22;24062;47.480;8.768;2023-10-19T03:38:07;20.20;54.80
38265;DHT22;24062;47.480;8.768;2023-10-19T03:40:40;20.20;54.80
38265;DHT22;24062;47.480;8.768;2023-10-19T03:43:12;20.20;54.80
38265;DHT22;24062;47.480;8.768;2023-10-19T03:45:44;20.20;54.80
38265;DHT22;24062;47.480;8.768;2023-10-19T03:48:18;20.20;54.80
38265;DHT22;24062;47.480;8.768;2023-10-19T03:50:54;20.30;54.80
38265;DHT22;24062;47.480;8.768;2023-10-19T03:53:22;20.20;54.70
38265;DHT22;24062;47.480;8.768;2023-10-19T03:55:49;20.30;54.70
38265;DHT22;24062;47.480;8.768;2023-10-19T03:58:18;20.30;54.70
38265;DHT22;24062;47.480;8.768;2023-10-19T04:00:47;20.30;54.70
38265;DHT22;24062;47.480;8.768;2023-10-19T04:03:14;20.30;54.70
38265;DHT22;24062;47.480;8.768;2023-10-19T04:05:43;20.30;54.70
38265;DHT22;24062;47.480;8.768;2023-10-19T04:08:13;20.30;54.60
38265;DHT22;24062;47.480;8.768;2023-10-19T04:10:45;20.40;54.80
38265;DHT22;24062;47.480;8.768;2023-10-19T04:13:33;20.30;54.60
38265;DHT22;24062;47.480;8.768;2023-10-19T04:16:01;20.40;54.80
38265;DHT22;24062;47.480;8.768;2023-10-19T04:18:28;20.30;54.70
38265;DHT22;24062;47.480;8.768;2023-10-19T04:20:56;20.40;54.80
38265;DHT22;24062;47.480;8.768;2023-10-19T04:23:25;20.30;54.70
38265;DHT22;24062;47.480;8.768;2023-10-19T04:25:53;20.40;54.80
38265;DHT22;24062;47.480;8.768;2023-10-19T04:28:24;20.40;54.80
38265;DHT22;24062;47.480;8.768;2023-10-19T04:30:59;20.40;54.80
38265;DHT22;24062;47.480;8.768;2023-10-19T04:33:29;20.40;54.80
38265;DHT22;24062;47.480;8.768;2023-10-19T04:35:56;20.40;54.80
38265;DHT22;24062;47.480;8.768;2023-10-19T04:38:27;20.40;54.80
38265;DHT22;24062;47.480;8.768;2023-10-19T04:41:03;20.50;54.90
38265;DHT22;24062;47.480;8.768;2023-10-19T04:43:33;20.50;54.80
38265;DHT22;24062;47.480;8.768;2023-10-19T04:46:00;20.50;54.90
38265;DHT22;24062;47.480;8.768;2023-10-19T04:48:33;20.50;54.90
38265;DHT22;24062;47.480;8.768;2023-10-19T04:51:01;20.40;54.80
38265;DHT22;24062;47.480;8.768;2023-10-19T04:53:30;20.50;54.80
38265;DHT22;24062;47.480;8.768;2023-10-19T04:55:57;20.50;54.90
38265;DHT22;24062;47.480;8.768;2023-10-19T04:58:26;20.50;54.80
38265;DHT22;24062;47.480;8.768;2023-10-19T05:00:54;20.50;54.80
38265;DHT22;24062;47.480;8.768;2023-10-19T05:03:20;20.50;54.80
38265;DHT22;24062;47.480;8.768;2023-10-19T05:05:47;20.50;54.90
38265;DHT22;24062;47.480;8.768;2023-10-19T05:08:14;20.50;54.80
38265;DHT22;24062;47.480;8.768;2023-10-19T05:10:43;20.50;54.90
38265;DHT22;24062;47.480;8.768;2023-10-19T05:13:10;20.50;54.80
38265;DHT22;24062;47.480;8.768;2023-10-19T05:15:37;20.50;54.80
38265;DHT22;24062;47.480;8.768;2023-10-19T05:18:04;20.60;54.90
38265;DHT22;24062;47.480;8.768;2023-10-19T05:20:31;20.50;54.80
38265;DHT22;24062;47.480;8.768;2023-10-19T05:22:59;20.60;54.90
38265;DHT22;24062;47.480;8.768;2023-10-19T05:25:26;20.50;54.80
38265;DHT22;24062;47.480;8.768;2023-10-19T05:27:54;20.50;54.80
38265;DHT22;24062;47.480;8.768;2023-10-19T05:30:21;20.60;54.80
38265;DHT22;24062;47.480;8.768;2023-10-19T05:32:50;20.50;54.80
38265;DHT22;24062;47.480;8.768;2023-10-19T05:35:17;20.60;54.80
38265;DHT22;24062;47.480;8.768;2023-10-19T05:37:49;20.60;54.80
38265;DHT22;24062;47.480;8.768;2023-10-19T05:40:16;20.60;54.80
38265;DHT22;24062;47.480;8.768;2023-10-19T05:42:44;20.60;54.80
38265;DHT22;24062;47.480;8.768;2023-10-19T05:45:13;20.60;55.40
38265;DHT22;24062;47.480;8.768;2023-10-19T05:47:42;20.60;54.80
38265;DHT22;24062;47.480;8.768;2023-10-19T05:50:10;20.60;54.80
38265;DHT22;24062;47.480;8.768;2023-10-19T05:52:40;20.60;54.80
38265;DHT22;24062;47.480;8.768;2023-10-19T05:55:08;20.60;54.80
38265;DHT22;24062;47.480;8.768;2023-10-19T05:57:37;20.60;54.80
38265;DHT22;24062;47.480;8.768;2023-10-19T06:00:07;20.60;54.80
38265;DHT22;24062;47.480;8.768;2023-10-19T06:02:41;20.60;54.70
38265;DHT22;24062;47.480;8.768;2023-10-19T06:05:10;20.60;54.70
38265;DHT22;24062;47.480;8.768;2023-10-19T06:07:37;20.60;54.70
38265;DHT22;24062;47.480;8.768;2023-10-19T06:10:05;20.70;54.80
38265;DHT22;24062;47.480;8.768;2023-10-19T06:12:32;20.70;54.80
38265;DHT22;24062;47.480;8.768;2023-10-19T06:15:00;20.70;54.70
38265;DHT22;24062;47.480;8.768;2023-10-19T06:17:27;20.70;54.80
38265;DHT22;24062;47.480;8.768;2023-10-19T06:19:56;20.70;54.70
38265;DHT22;24062;47.480;8.768;2023-10-19T06:22:22;20.70;54.70
38265;DHT22;24062;47.480;8.768;2023-10-19T06:24:49;20.70;54.70
38265;DHT22;24062;47.480;8.768;2023-10-19T06:27:17;20.70;54.70
38265;DHT22;24062;47.480;8.768;2023-10-19T06:29:44;20.70;54.70
38265;DHT22;24062;47.480;8.768;2023-10-19T06:32:11;20.70;54.60
38265;DHT22;24062;47.480;8.768;2023-10-19T06:34:39;20.70;54.60
38265;DHT22;24062;47.480;8.768;2023-10-19T06:37:08;20.70;54.60
38265;DHT22;24062;47.480;8.768;2023-10-19T06:39:37;20.80;54.70
38265;DHT22;24062;47.480;8.768;2023-10-19T06:42:07;20.80;54.70
38265;DHT22;24062;47.480;8.768;2023-10-19T06:44:40;20.80;54.70
38265;DHT22;24062;47.480;8.768;2023-10-19T06:47:08;20.80;54.60
38265;DHT22;24062;47.480;8.768;2023-10-19T06:49:36;20.80;54.60
38265;DHT22;24062;47.480;8.768;2023-10-19T06:52:03;20.80;54.60
38265;DHT22;24062;47.480;8.768;2023-10-19T06:54:32;20.80;54.60
38265;DHT22;24062;47.480;8.768;2023-10-19T06:56:59;20.80;54.60
38265;DHT22;24062;47.480;8.768;2023-10-19T06:59:28;20.80;54.60
38265;DHT22;24062;47.480;8.768;2023-10-19T07:01:58;20.80;54.60
38265;DHT22;24062;47.480;8.768;2023-10-19T07:04:27;20.80;54.60
38265;DHT22;24062;47.480;8.768;2023-10-19T07:06:54;20.80;54.60
38265;DHT22;24062;47.480;8.768;2023-10-19T07:09:21;20.80;54.60
38265;DHT22;24062;47.480;8.768;2023-10-19T07:11:50;20.80;54.60
38265;DHT22;24062;47.480;8.768;2023-10-19T07:14:20;20.80;54.60
38265;DHT22;24062;47.480;8.768;2023-10-19T07:16:49;20.80;54.60
38265;DHT22;24062;47.480;8.768;2023-10-19T07:19:17;20.80;54.60
38265;DHT22;24062;47.480;8.768;2023-10-19T07:21:45;20.80;54.60
38265;DHT22;24062;47.480;8.768;2023-10-19T07:24:19;20.90;54.60
38265;DHT22;24062;47.480;8.768;2023-10-19T07:26:50;20.90;54.60
38265;DHT22;24062;47.480;8.768;2023-10-19T07:29:29;20.90;54.60
38265;DHT22;24062;47.480;8.768;2023-10-19T07:31:57;20.90;54.60
38265;DHT22;24062;47.480;8.768;2023-10-19T07:34:25;20.90;54.60
38265;DHT22;24062;47.480;8.768;2023-10-19T07:36:54;20.90;54.60
38265;DHT22;24062;47.480;8.768;2023-10-19T07:39:21;20.90;54.60
38265;DHT22;24062;47.480;8.768;2023-10-19T07:41:50;20.90;54.50
38265;DHT22;24062;47.480;8.768;2023-10-19T07:44:17;21.00;54.60
38265;DHT22;24062;47.480;8.768;2023-10-19T07:46:44;21.00;54.50
38265;DHT22;24062;47.480;8.768;2023-10-19T07:49:11;21.00;54.50
38265;DHT22;24062;47.480;8.768;2023-10-19T07:51:44;21.00;54.50
38265;DHT22;24062;47.480;8.768;2023-10-19T07:54:11;21.00;54.50
38265;DHT22;24062;47.480;8.768;2023-10-19T07:56:38;21.00;54.50
38265;DHT22;24062;47.480;8.768;2023-10-19T07:59:07;21.00;54.40
38265;DHT22;24062;47.480;8.768;2023-10-19T08:01:34;21.00;54.40
38265;DHT22;24062;47.480;8.768;2023-10-19T08:04:02;21.00;54.40
38265;DHT22;24062;47.480;8.768;2023-10-19T08:06:28;21.00;54.40
38265;DHT22;24062;47.480;8.768;2023-10-19T08:08:56;21.00;54.40
38265;DHT22;24062;47.480;8.768;2023-10-19T08:11:23;21.00;54.40
38265;DHT22;24062;47.480;8.768;2023-10-19T08:13:50;21.10;54.40
38265;DHT22;24062;47.480;8.768;2023-10-19T08:16:19;21.10;54.40
38265;DHT22;24062;47.480;8.768;2023-10-19T08:18:46;21.10;54.40
38265;DHT22;24062;47.480;8.768;2023-10-19T08:21:13;21.10;54.40
38265;DHT22;24062;47.480;8.768;2023-10-19T08:23:39;21.10;54.40
38265;DHT22;24062;47.480;8.768;2023-10-19T08:26:08;21.10;54.30
38265;DHT22;24062;47.480;8.768;2023-10-19T08:28:36;21.20;54.30
38265;DHT22;24062;47.480;8.768;2023-10-19T08:31:03;21.40;54.30
38265;DHT22;24062;47.480;8.768;2023-10-19T08:33:32;21.90;53.70
38265;DHT22;24062;47.480;8.768;2023-10-19T08:35:59;22.00;53.30
38265;DHT22;24062;47.480;8.768;2023-10-19T08:38:26;21.90;53.30
38265;DHT22;24062;47.480;8.768;2023-10-19T08:40:54;21.80;53.30
38265;DHT22;24062;47.480;8.768;2023-10-19T08:43:21;21.80;53.40
38265;DHT22;24062;47.480;8.768;2023-10-19T08:45:49;21.70;53.50
38265;DHT22;24062;47.480;8.768;2023-10-19T08:48:17;21.60;53.50
38265;DHT22;24062;47.480;8.768;2023-10-19T08:50:45;21.50;53.60
38265;DHT22;24062;47.480;8.768;2023-10-19T08:53:13;21.50;53.70
38265;DHT22;24062;47.480;8.768;2023-10-19T08:55:40;21.40;53.80
38265;DHT22;24062;47.480;8.768;2023-10-19T08:58:09;21.40;53.90
38265;DHT22;24062;47.480;8.768;2023-10-19T09:00:46;21.30;53.90
38265;DHT22;24062;47.480;8.768;2023-10-19T09:03:19;21.30;54.00
38265;DHT22;24062;47.480;8.768;2023-10-19T09:05:48;21.30;54.00
38265;DHT22;24062;47.480;8.768;2023-10-19T09:08:17;21.50;54.00
38265;DHT22;24062;47.480;8.768;2023-10-19T09:10:48;21.60;53.70
38265;DHT22;24062;47.480;8.768;2023-10-19T09:13:15;21.60;53.70
38265;DHT22;24062;47.480;8.768;2023-10-19T09:15:44;21.80;53.60
38265;DHT22;24062;47.480;8.768;2023-10-19T09:18:15;21.70;53.40
38265;DHT22;24062;47.480;8.768;2023-10-19T09:20:42;21.70;53.50
38265;DHT22;24062;47.480;8.768;2023-10-19T09:23:20;21.70;53.50
38265;DHT22;24062;47.480;8.768;2023-10-19T09:25:48;21.80;53.60
38265;DHT22;24062;47.480;8.768;2023-10-19T09:28:15;22.00;53.40
38265;DHT22;24062;47.480;8.768;2023-10-19T09:30:43;22.00;53.30
38265;DHT22;24062;47.480;8.768;2023-10-19T09:33:13;22.10;53.20
38265;DHT22;24062;47.480;8.768;2023-10-19T09:35:43;22.50;53.30
38265;DHT22;24062;47.480;8.768;2023-10-19T09:38:11;23.20;52.20
38265;DHT22;24062;47.480;8.768;2023-10-19T09:40:39;23.30;51.60
38265;DHT22;24062;47.480;8.768;2023-10-19T09:43:14;23.30;51.70
38265;DHT22;24062;47.480;8.768;2023-10-19T09:45:42;23.40;51.80
38265;DHT22;24062;47.480;8.768;2023-10-19T09:48:16;23.50;51.70
38265;DHT22;24062;47.480;8.768;2023-10-19T09:50:45;23.50;51.60
38265;DHT22;24062;47.480;8.768;2023-10-19T09:53:17;23.40;51.60
38265;DHT22;24062;47.480;8.768;2023-10-19T09:55:47;23.50;51.60
38265;DHT22;24062;47.480;8.768;2023-10-19T09:58:16;23.50;51.70
38265;DHT22;24062;47.480;8.768;2023-10-19T10:00:44;23.40;51.80
38265;DHT22;24062;47.480;8.768;2023-10-19T10:03:42;23.40;51.80
38265;DHT22;24062;47.480;8.768;2023-10-19T10:06:09;23.30;51.90
38265;DHT22;24062;47.480;8.768;2023-10-19T10:08:38;23.30;52.10
38265;DHT22;24062;47.480;8.768;2023-10-19T10:11:24;23.20;52.20
38265;DHT22;24062;47.480;8.768;2023-10-19T10:13:52;23.10;52.50
38265;DHT22;24062;47.480;8.768;2023-10-19T10:16:22;23.00;52.50
38265;DHT22;24062;47.480;8.768;2023-10-19T10:18:53;22.90;52.70
38265;DHT22;24062;47.480;8.768;2023-10-19T10:21:21;22.90;52.60
38265;DHT22;24062;47.480;8.768;2023-10-19T10:23:51;22.90;52.60
38265;DHT22;24062;47.480;8.768;2023-10-19T10:26:20;22.90;52.60
38265;DHT22;24062;47.480;8.768;2023-10-19T10:29:11;22.90;52.60
38265;DHT22;24062;47.480;8.768;2023-10-19T10:31:46;23.00;52.70
38265;DHT22;24062;47.480;8.768;2023-10-19T10:34:43;23.10;52.60
38265;DHT22;24062;47.480;8.768;2023-10-19T10:37:11;23.20;52.50
38265;DHT22;24062;47.480;8.768;2023-10-19T10:39:39;23.20;52.40
38265;DHT22;24062;47.480;8.768;2023-10-19T10:42:08;23.20;52.30
38265;DHT22;24062;47.480;8.768;2023-10-19T10:44:37;23.20;52.40
38265;DHT22;24062;47.480;8.768;2023-10-19T10:47:06;23.20;52.40
38265;DHT22;24062;47.480;8.768;2023-10-19T10:49:45;23.10;52.40
38265;DHT22;24062;47.480;8.768;2023-10-19T10:52:12;23.20;52.50
38265;DHT22;24062;47.480;8.768;2023-10-19T10:54:39;23.10;52.40
38265;DHT22;24062;47.480;8.768;2023-10-19T10:57:06;23.10;52.60
38265;DHT22;24062;47.480;8.768;2023-10-19T10:59:33;23.10;52.50
38265;DHT22;24062;47.480;8.768;2023-10-19T11:02:08;23.20;52.50
38265;DHT22;24062;47.480;8.768;2023-10-19T11:04:43;23.20;52.40
38265;DHT22;24062;47.480;8.768;2023-10-19T11:07:18;23.20;52.50
38265;DHT22;24062;47.480;8.768;2023-10-19T11:09:46;23.20;52.50
38265;DHT22;24062;47.480;8.768;2023-10-19T11:12:13;23.20;52.50
38265;DHT22;24062;47.480;8.768;2023-10-19T11:14:51;23.20;52.40
38265;DHT22;24062;47.480;8.768;2023-10-19T11:17:20;23.20;52.50
38265;DHT22;24062;47.480;8.768;2023-10-19T11:19:54;23.20;52.40
38265;DHT22;24062;47.480;8.768;2023-10-19T11:22:22;23.20;52.40
38265;DHT22;24062;47.480;8.768;2023-10-19T11:24:50;23.20;52.50
38265;DHT22;24062;47.480;8.768;2023-10-19T11:27:22;23.20;52.50
38265;DHT22;24062;47.480;8.768;2023-10-19T11:29:55;23.10;52.40
38265;DHT22;24062;47.480;8.768;2023-10-19T11:32:25;23.10;52.50
38265;DHT22;24062;47.480;8.768;2023-10-19T11:34:53;23.10;52.60
38265;DHT22;24062;47.480;8.768;2023-10-19T11:37:20;23.10;52.70
38265;DHT22;24062;47.480;8.768;2023-10-19T11:39:47;23.00;52.70
38265;DHT22;24062;47.480;8.768;2023-10-19T11:42:15;23.00;52.70
38265;DHT22;24062;47.480;8.768;2023-10-19T11:44:43;23.00;52.70
38265;DHT22;24062;47.480;8.768;2023-10-19T11:47:11;23.00;52.70
38265;DHT22;24062;47.480;8.768;2023-10-19T11:49:40;23.00;52.70
38265;DHT22;24062;47.480;8.768;2023-10-19T11:52:07;23.00;52.70
38265;DHT22;24062;47.480;8.768;2023-10-19T11:54:34;23.00;52.80
38265;DHT22;24062;47.480;8.768;2023-10-19T11:57:01;23.00;52.80
38265;DHT22;24062;47.480;8.768;2023-10-19T11:59:28;23.00;52.70
38265;DHT22;24062;47.480;8.768;2023-10-19T12:01:55;23.10;52.80
38265;DHT22;24062;47.480;8.768;2023-10-19T12:04:24;23.10;52.70
38265;DHT22;24062;47.480;8.768;2023-10-19T12:06:52;23.10;52.70
38265;DHT22;24062;47.480;8.768;2023-10-19T12:09:20;23.10;52.70
38265;DHT22;24062;47.480;8.768;2023-10-19T12:11:50;23.10;52.70
38265;DHT22;24062;47.480;8.768;2023-10-19T12:14:18;23.10;52.80
38265;DHT22;24062;47.480;8.768;2023-10-19T12:16:46;23.10;52.80
38265;DHT22;24062;47.480;8.768;2023-10-19T12:19:13;23.00;52.80
38265;DHT22;24062;47.480;8.768;2023-10-19T12:21:42;23.00;52.80
38265;DHT22;24062;47.480;8.768;2023-10-19T12:24:11;23.00;52.80
38265;DHT22;24062;47.480;8.768;2023-10-19T12:26:38;23.00;52.80
38265;DHT22;24062;47.480;8.768;2023-10-19T12:29:05;23.00;52.80
38265;DHT22;24062;47.480;8.768;2023-10-19T12:31:35;23.10;52.90
38265;DHT22;24062;47.480;8.768;2023-10-19T12:34:05;23.10;53.00
38265;DHT22;24062;47.480;8.768;2023-10-19T12:36:33;23.10;53.10
38265;DHT22;24062;47.480;8.768;2023-10-19T12:39:01;23.10;53.10
38265;DHT22;24062;47.480;8.768;2023-10-19T12:41:32;23.10;53.30
38265;DHT22;24062;47.480;8.768;2023-10-19T12:43:59;23.20;53.40
38265;DHT22;24062;47.480;8.768;2023-10-19T12:46:27;23.10;53.40
38265;DHT22;24062;47.480;8.768;2023-10-19T12:48:55;23.10;53.40
38265;DHT22;24062;47.480;8.768;2023-10-19T12:51:23;23.20;53.50
38265;DHT22;24062;47.480;8.768;2023-10-19T12:53:50;23.10;53.50
38265;DHT22;24062;47.480;8.768;2023-10-19T12:56:18;23.10;53.40
38265;DHT22;24062;47.480;8.768;2023-10-19T12:58:46;23.10;53.40
38265;DHT22;24062;47.480;8.768;2023-10-19T13:01:13;23.10;53.40
38265;DHT22;24062;47.480;8.768;2023-10-19T13:03:44;23.10;53.40
38265;DHT22;24062;47.480;8.768;2023-10-19T13:06:12;23.10;53.40
38265;DHT22;24062;47.480;8.768;2023-10-19T13:08:39;23.10;53.40
38265;DHT22;24062;47.480;8.768;2023-10-19T13:11:07;23.10;53.30
38265;DHT22;24062;47.480;8.768;2023-10-19T13:13:35;23.10;53.30
38265;DHT22;24062;47.480;8.768;2023-10-19T13:16:04;23.10;53.20
38265;DHT22;24062;47.480;8.768;2023-10-19T13:18:32;23.20;53.30
38265;DHT22;24062;47.480;8.768;2023-10-19T13:21:00;23.20;53.20
38265;DHT22;24062;47.480;8.768;2023-10-19T13:23:31;23.20;53.20
38265;DHT22;24062;47.480;8.768;2023-10-19T13:25:59;23.10;53.30
38265;DHT22;24062;47.480;8.768;2023-10-19T13:28:34;23.20;53.40
38265;DHT22;24062;47.480;8.768;2023-10-19T13:31:04;23.20;53.30
38265;DHT22;24062;47.480;8.768;2023-10-19T13:33:34;23.10;53.40
38265;DHT22;24062;47.480;8.768;2023-10-19T13:36:01;23.10;53.40
38265;DHT22;24062;47.480;8.768;2023-10-19T13:38:31;23.10;53.50
38265;DHT22;24062;47.480;8.768;2023-10-19T13:40:58;23.10;53.60
38265;DHT22;24062;47.480;8.768;2023-10-19T13:43:25;23.10;53.60
38265;DHT22;24062;47.480;8.768;2023-10-19T13:45:52;23.10;53.70
38265;DHT22;24062;47.480;8.768;2023-10-19T13:48:21;23.10;53.70
38265;DHT22;24062;47.480;8.768;2023-10-19T13:50:48;23.10;53.70
38265;DHT22;24062;47.480;8.768;2023-10-19T13:53:18;23.10;53.60
38265;DHT22;24062;47.480;8.768;2023-10-19T13:55:45;23.10;53.70
38265;DHT22;24062;47.480;8.768;2023-10-19T13:58:12;23.10;53.70
38265;DHT22;24062;47.480;8.768;2023-10-19T14:00:41;23.10;53.60
38265;DHT22;24062;47.480;8.768;2023-10-19T14:03:09;23.10;53.70
38265;DHT22;24062;47.480;8.768;2023-10-19T14:05:40;23.20;53.70
38265;DHT22;24062;47.480;8.768;2023-10-19T14:08:09;23.20;53.70
38265;DHT22;24062;47.480;8.768;2023-10-19T14:10:36;23.20;54.00
38265;DHT22;24062;47.480;8.768;2023-10-19T14:13:06;23.20;54.10
38265;DHT22;24062;47.480;8.768;2023-10-19T14:15:35;23.10;54.10
38265;DHT22;24062;47.480;8.768;2023-10-19T14:18:03;23.10;54.00
38265;DHT22;24062;47.480;8.768;2023-10-19T14:20:30;23.10;54.00
38265;DHT22;24062;47.480;8.768;2023-10-19T14:23:01;23.20;54.10
38265;DHT22;24062;47.480;8.768;2023-10-19T14:25:30;23.20;54.10
38265;DHT22;24062;47.480;8.768;2023-10-19T14:27:57;23.20;54.00
38265;DHT22;24062;47.480;8.768;2023-10-19T14:30:26;23.20;53.90
38265;DHT22;24062;47.480;8.768;2023-10-19T14:32:55;23.20;53.90
38265;DHT22;24062;47.480;8.768;2023-10-19T14:35:24;23.20;54.30
38265;DHT22;24062;47.480;8.768;2023-10-19T14:37:52;23.20;54.50
38265;DHT22;24062;47.480;8.768;2023-10-19T14:40:25;23.20;54.60
38265;DHT22;24062;47.480;8.768;2023-10-19T14:42:53;23.20;55.00
38265;DHT22;24062;47.480;8.768;2023-10-19T14:45:22;23.10;55.00
38265;DHT22;24062;47.480;8.768;2023-10-19T14:47:52;23.10;55.20
38265;DHT22;24062;47.480;8.768;2023-10-19T14:50:20;23.10;55.10
38265;DHT22;24062;47.480;8.768;2023-10-19T14:52:49;23.10;55.20
38265;DHT22;24062;47.480;8.768;2023-10-19T14:55:16;23.20;55.10
38265;DHT22;24062;47.480;8.768;2023-10-19T14:57:45;23.20;55.10
38265;DHT22;24062;47.480;8.768;2023-10-19T15:00:15;23.20;55.10
38265;DHT22;24062;47.480;8.768;2023-10-19T15:02:48;23.20;55.30
38265;DHT22;24062;47.480;8.768;2023-10-19T15:05:16;23.20;55.20
38265;DHT22;24062;47.480;8.768;2023-10-19T15:07:44;23.10;55.40
38265;DHT22;24062;47.480;8.768;2023-10-19T15:10:12;23.10;55.40
38265;DHT22;24062;47.480;8.768;2023-10-19T15:12:40;23.10;55.30
38265;DHT22;24062;47.480;8.768;2023-10-19T15:15:09;23.10;55.30
38265;DHT22;24062;47.480;8.768;2023-10-19T15:17:37;23.10;55.40
38265;DHT22;24062;47.480;8.768;2023-10-19T15:20:06;23.10;55.30
38265;DHT22;24062;47.480;8.768;2023-10-19T15:22:34;23.10;55.30
38265;DHT22;24062;47.480;8.768;2023-10-19T15:25:01;23.10;55.30
38265;DHT22;24062;47.480;8.768;2023-10-19T15:27:29;23.10;55.30
38265;DHT22;24062;47.480;8.768;2023-10-19T15:29:57;23.10;55.30
38265;DHT22;24062;47.480;8.768;2023-10-19T15:32:25;23.10;55.30
38265;DHT22;24062;47.480;8.768;2023-10-19T15:34:56;23.10;55.20
38265;DHT22;24062;47.480;8.768;2023-10-19T15:37:23;23.10;55.10
38265;DHT22;24062;47.480;8.768;2023-10-19T15:39:50;23.10;55.10
38265;DHT22;24062;47.480;8.768;2023-10-19T15:42:18;23.10;55.00
38265;DHT22;24062;47.480;8.768;2023-10-19T15:44:47;23.10;55.00